Molt, MT (59057)

8:30 AM MST on December 25, 2014 (GMT -0700)
Billings Flying Mustangs | Change Station
CLOSE
Current Station
Personal Weather Station
Location: Billings, MT
Elevation: 3504 ft
Nearby Weather Stations
Active Advisory: Winter Weather Advisory Active Notice: Local Storm Report

Elev 3504 ft 45.79 °N, 108.73 °W | Updated 9 seconds ago

Overcast
Overcast
26.4 °F
Feels Like 20 °F
N
5.2
Wind Variable Wind from NNE
Gusts 5.9 mph

Today
High -- | Low -- °F
--% Chance of Precip.
Yesterday
High -- | Low -- °F
Precip. -- in
7:55 AM 4:35 PM
Waxing Crescent, 17% visible
Pressure 29.80 in
Visibility 1.2 miles
Clouds Scattered Clouds 500 ft
Mostly Cloudy 1400 ft
Overcast 2100 ft
Windchill 20 °F
Dew Point 23 °F
Humidity 91%
Rainfall 0.00 in
Snow Depth Not available.
UV 0 out of 12
Pollen .10 out of 12
Air Quality Not available.
Flu Activity Not available.
SPECI KBIL 251521Z 03005KT 1 1/4SM -SN BR SCT005 BKN014 OVC021 M04/M04 A2980 RMK AO2 VIS 1V2 P0001 T10391044 $

More Conditions Fewer Conditions

Pressure 29.80 in
Visibility 1.2 miles
Clouds Scattered Clouds 500 ft
Mostly Cloudy 1400 ft
Overcast 2100 ft
Windchill 20 °F
Dew Point 23 °F
Humidity 91%
Rainfall 0.00 in
Snow Depth Not available.
UV 0 out of 12
Pollen .10 out of 12
Air Quality Not available.
Flu Activity Not available.
SPECI KBIL 251521Z 03005KT 1 1/4SM -SN BR SCT005 BKN014 OVC021 M04/M04 A2980 RMK AO2 VIS 1V2 P0001 T10391044 $

More Conditions Fewer Conditions

10-Day Weather Forecast

Almanac

Astronomy

Dec. 25, 2014 Rise Set
Actual Time
Civil Twilight
Nautical Twilight
Astronomical Twilight
Moon
Length of Visible Light
Length of Day
Tomorrow will be .
, % of the Moon is Illuminated

Today's Extremes

State Highs State Lows

Community

WunderPhotos

Upload Photos

1,780,313 photos uploaded!

WunderBlogs® & News

Nearby

Air Quality

  Air Quality AQ Index Pollutant
Not available.

Snow Depth

Station Depth Elevation

Earthquake Activity

City Distance Mag. Time & Date
Minimum magnitude displayed is 2.5.

Coastal Water Temperatures

Place Temperature

Nearby Weather Stations